Time;durP1;ratioP1;P1;durP2;ratioP2;P2;SDS_P1;SDS_P2;PMS_P1;PMS_P2;Temp;Humidity;BMP_temperature;BMP_pressure;BME280_temperature;BME280_humidity;BME280_pressure;Samples;Min_cycle;Max_cycle;Signal;HPM_P1;HPM_P2
2023/12/17 00:03:28;;;;;;;13.70;8.83;;;;;;;11.44;37.63;101907.75;10429262;28;20322;-69
2023/12/17 00:08:30;;;;;;;15.17;9.93;;;;;;;10.36;40.19;101784.31;10469455;28;20231;-70
2023/12/17 00:13:33;;;;;;;12.37;9.67;;;;;;;13.04;36.30;101842.78;10476502;28;20223;-70
2023/12/17 00:18:35;;;;;;;15.63;10.07;;;;;;;12.76;36.65;101866.13;10479871;28;20325;-68
2023/12/17 00:23:37;;;;;;;12.67;9.80;;;;;;;11.13;38.58;101900.78;10456971;28;20240;-69
2023/12/17 00:28:39;;;;;;;12.90;9.67;;;;;;;11.47;38.14;101917.34;10425820;28;20235;-68
2023/12/17 00:33:40;;;;;;;13.77;9.77;;;;;;;11.48;38.56;101822.53;10422269;28;20834;-70
2023/12/17 00:38:42;;;;;;;13.93;9.43;;;;;;;8.71;42.31;101926.13;10461952;28;20321;-69
2023/12/17 00:43:44;;;;;;;14.60;8.73;;;;;;;10.87;38.66;101954.81;10478132;28;20255;-68
2023/12/17 00:48:45;;;;;;;14.37;10.77;;;;;;;12.03;38.15;101813.03;10478215;28;20684;-68
2023/12/17 00:53:47;;;;;;;13.03;9.43;;;;;;;8.74;41.56;101964.13;10477055;28;20632;-70
2023/12/17 00:58:49;;;;;;;12.47;8.67;;;;;;;8.39;42.35;101921.47;10463182;28;20313;-69
2023/12/17 01:03:51;;;;;;;11.13;9.43;;;;;;;10.81;39.90;101795.50;10442469;28;20258;-69
2023/12/17 01:08:52;;;;;;;10.90;9.80;;;;;;;11.04;38.42;101931.91;10478851;28;20235;-69
2023/12/17 01:13:54;;;;;;;13.63;9.87;;;;;;;11.26;38.71;101890.66;10475965;28;20282;-69
2023/12/17 01:18:56;;;;;;;14.10;10.77;;;;;;;10.52;39.62;101926.53;10457596;28;20619;-68
2023/12/17 01:23:58;;;;;;;12.90;10.63;;;;;;;9.44;42.55;101747.56;10424616;28;20229;-69
2023/12/17 01:29:00;;;;;;;14.80;10.10;;;;;;;9.32;41.38;101925.78;10424572;28;20247;-69
2023/12/17 01:34:02;;;;;;;13.10;9.70;;;;;;;10.59;40.55;101726.91;10446617;28;20223;-68
2023/12/17 01:39:04;;;;;;;10.57;9.27;;;;;;;9.53;41.39;101867.06;10456806;28;20232;-69
2023/12/17 01:44:06;;;;;;;12.70;9.87;;;;;;;8.88;42.55;101834.06;10437061;28;20235;-69
2023/12/17 01:49:08;;;;;;;16.30;10.03;;;;;;;8.76;43.38;101689.91;10479133;28;20330;-69
2023/12/17 01:54:10;;;;;;;13.43;9.93;;;;;;;8.93;41.99;101805.19;10474822;28;20711;-68
2023/12/17 01:59:12;;;;;;;11.77;9.63;;;;;;;10.96;39.46;101715.59;10474983;28;20305;-69
2023/12/17 02:04:14;;;;;;;15.50;10.90;;;;;;;6.72;44.31;101932.66;10454568;28;20238;-68
2023/12/17 02:09:16;;;;;;;14.97;10.17;;;;;;;9.15;41.93;101718.81;10444002;28;20623;-69
2023/12/17 02:14:17;;;;;;;13.60;11.07;;;;;;;9.11;42.26;101712.88;10480518;28;20275;-70
2023/12/17 02:19:19;;;;;;;13.13;9.40;;;;;;;9.02;41.52;101837.31;10475545;28;20747;-71
2023/12/17 02:24:24;;;;;;;10.97;9.20;;;;;;;10.35;40.82;101673.75;10476629;28;20227;-70
2023/12/17 02:29:25;;;;;;;12.97;10.00;;;;;;;10.06;40.32;101831.50;10472083;28;20703;-70
2023/12/17 02:34:28;;;;;;;12.90;10.57;;;;;;;9.63;40.89;101808.34;10475941;28;20234;-71
2023/12/17 02:39:30;;;;;;;14.30;9.97;;;;;;;10.64;39.43;101780.06;10474559;28;20739;-71
2023/12/17 02:44:32;;;;;;;12.70;10.63;;;;;;;8.58;42.52;101828.34;10475439;28;20232;-71
2023/12/17 02:49:35;;;;;;;15.23;11.10;;;;;;;9.89;40.03;101809.69;10468969;28;20751;-71
2023/12/17 02:54:37;;;;;;;13.77;9.97;;;;;;;8.26;42.44;101905.56;10478037;28;20766;-70
2023/12/17 02:59:40;;;;;;;9.63;8.57;;;;;;;8.57;42.33;101829.31;10470975;28;20238;-71
2023/12/17 03:04:41;;;;;;;12.60;8.90;;;;;;;9.03;42.70;101675.28;10444653;28;20235;-70
2023/12/17 03:09:43;;;;;;;11.60;8.67;;;;;;;9.42;41.21;101734.34;10418389;28;20588;-69
2023/12/17 03:14:45;;;;;;;17.57;9.40;;;;;;;8.76;42.71;101705.06;10419287;28;20256;-70
2023/12/17 03:19:46;;;;;;;23.60;10.53;;;;;;;8.29;43.10;101739.94;10441620;28;20724;-71
2023/12/17 03:24:48;;;;;;;14.87;9.03;;;;;;;7.87;43.45;101750.34;10471568;28;20392;-71
2023/12/17 03:29:50;;;;;;;19.27;9.50;;;;;;;9.11;41.79;101694.19;10468087;28;20790;-71
2023/12/17 03:34:52;;;;;;;12.10;9.73;;;;;;;8.14;43.04;101728.66;10470887;28;20717;-70
2023/12/17 03:39:54;;;;;;;12.23;8.93;;;;;;;8.71;42.61;101641.38;10476144;28;20312;-71
2023/12/17 03:44:55;;;;;;;12.83;10.97;;;;;;;7.34;44.16;101748.94;10445389;28;20234;-71
2023/12/17 03:49:57;;;;;;;15.43;10.90;;;;;;;8.03;43.13;101670.00;10452240;28;20318;-70
2023/12/17 03:54:59;;;;;;;16.20;11.57;;;;;;;6.94;44.87;101680.03;10488893;28;20723;-71
2023/12/17 04:00:03;;;;;;;12.53;10.93;;;;;;;8.29;42.81;101651.91;10460396;28;20606;-69
2023/12/17 04:05:06;;;;;;;22.40;11.07;;;;;;;8.27;43.28;101624.53;10422014;28;20235;-70
2023/12/17 04:10:08;;;;;;;12.63;10.30;;;;;;;7.92;43.18;101686.84;10455501;28;20238;-71
2023/12/17 04:15:09;;;;;;;15.40;11.83;;;;;;;7.60;43.78;101697.31;10449572;28;20410;-71
2023/12/17 04:20:11;;;;;;;14.23;11.17;;;;;;;8.65;42.09;101687.25;10425671;28;20285;-70
2023/12/17 04:25:13;;;;;;;14.27;11.33;;;;;;;7.14;44.23;101741.59;10456861;28;20234;-70
2023/12/17 04:30:14;;;;;;;15.43;11.50;;;;;;;7.52;44.69;101605.50;10474056;28;20676;-69
2023/12/17 04:35:16;;;;;;;16.77;11.93;;;;;;;7.91;43.47;101651.34;10479612;28;20735;-70
2023/12/17 04:40:18;;;;;;;16.10;12.30;;;;;;;7.84;42.62;101761.19;10447670;28;20329;-70
2023/12/17 04:45:20;;;;;;;17.37;12.17;;;;;;;6.99;44.65;101698.31;10425445;28;20614;-70
2023/12/17 04:50:22;;;;;;;14.83;10.70;;;;;;;8.03;43.25;101657.53;10459194;28;20333;-70
2023/12/17 04:55:23;;;;;;;13.97;10.83;;;;;;;7.50;43.53;101726.47;10477450;28;20725;-69
2023/12/17 05:00:25;;;;;;;15.90;10.93;;;;;;;6.90;44.35;101778.84;10440158;28;20269;-69
2023/12/17 05:05:27;;;;;;;12.73;10.40;;;;;;;7.31;44.17;101647.13;10432945;28;20609;-68
2023/12/17 05:10:29;;;;;;;14.13;10.00;;;;;;;6.56;45.67;101587.06;10464412;28;20320;-68
2023/12/17 05:15:31;;;;;;;10.83;9.57;;;;;;;5.75;46.22;101698.25;10477180;28;20229;-69
2023/12/17 05:20:33;;;;;;;13.97;9.40;;;;;;;6.89;44.99;101589.03;10440255;28;20335;-68
2023/12/17 05:25:35;;;;;;;25.50;10.03;;;;;;;8.19;42.45;101621.63;10418382;28;20253;-67
2023/12/17 05:30:37;;;;;;;13.80;11.20;;;;;;;8.66;42.44;101556.34;10422159;28;20548;-69
2023/12/17 05:35:39;;;;;;;14.43;11.47;;;;;;;8.77;41.63;101583.97;10423001;28;20227;-70
2023/12/17 05:40:41;;;;;;;13.33;10.53;;;;;;;8.85;41.03;101610.88;10462718;28;20257;-68
2023/12/17 05:45:43;;;;;;;12.87;10.57;;;;;;;8.19;42.09;101658.97;10519571;28;20656;-68
2023/12/17 05:50:58;;;;;;;15.57;12.17;;;;;;;7.25;42.84;101800.22;10522194;28;20228;-69
2023/12/17 05:56:00;;;;;;;16.30;11.17;;;;;;;7.46;42.90;101731.19;10518693;28;20789;-68
2023/12/17 06:01:02;;;;;;;15.60;11.77;;;;;;;9.15;40.90;101641.34;10519668;28;20617;-68
2023/12/17 06:06:05;;;;;;;14.13;10.60;;;;;;;7.35;42.66;101832.34;10518585;28;20257;-67
2023/12/17 06:11:13;;;;;;;14.43;10.83;;;;;;;5.02;47.38;101627.09;10479641;28;20300;-68
2023/12/17 06:16:14;;;;;;;28.47;10.83;;;;;;;5.82;45.45;101707.50;10489233;28;20223;-68
2023/12/17 06:21:27;;;;;;;12.60;9.87;;;;;;;6.48;44.40;101712.63;10513022;28;20238;-69
2023/12/17 06:26:29;;;;;;;17.27;11.23;;;;;;;7.22;43.85;101616.69;10517963;28;20445;-68
2023/12/17 06:31:31;;;;;;;15.87;10.00;;;;;;;4.87;47.02;101745.69;10496805;28;20248;-69
2023/12/17 06:36:33;;;;;;;15.63;10.50;;;;;;;6.50;44.78;101632.72;10521394;28;20440;-68
2023/12/17 06:41:36;;;;;;;12.47;10.40;;;;;;;6.16;44.80;101718.44;10519106;28;20329;-69
2023/12/17 06:46:38;;;;;;;13.37;11.00;;;;;;;5.98;46.08;101568.25;10519135;28;20809;-69
2023/12/17 06:51:40;;;;;;;18.63;9.97;;;;;;;3.17;49.80;101810.59;10508632;28;20237;-69
2023/12/17 06:56:43;;;;;;;11.83;9.43;;;;;;;4.98;48.80;101467.25;10513702;28;20262;-69
2023/12/17 07:01:45;;;;;;;10.97;8.67;;;;;;;3.02;50.48;101714.44;10514201;28;20293;-69
2023/12/17 07:06:47;;;;;;;11.77;9.57;;;;;;;3.84;49.95;101575.44;10497552;28;20326;-70
2023/12/17 07:11:48;;;;;;;10.67;9.20;;;;;;;3.32;49.62;101740.91;10484224;28;20544;-69
2023/12/17 07:16:51;;;;;;;10.17;8.87;;;;;;;3.55;50.07;101598.44;10481797;28;20789;-69
2023/12/17 07:21:55;;;;;;;34.50;8.90;;;;;;;3.57;49.16;101755.38;10491976;28;20282;-69
2023/12/17 07:26:56;;;;;;;10.00;8.57;;;;;;;4.58;48.99;101489.38;10490411;28;20282;-68
2023/12/17 07:31:58;;;;;;;10.07;9.07;;;;;;;6.62;44.91;101606.06;10486555;28;20242;-69
2023/12/17 07:37:00;;;;;;;11.80;8.20;;;;;;;4.62;47.31;101730.47;10521828;28;20337;-68
2023/12/17 07:42:02;;;;;;;12.67;7.97;;;;;;;4.72;46.63;101793.44;10526540;28;20232;-70
2023/12/17 07:47:04;;;;;;;23.40;8.83;;;;;;;4.77;48.09;101539.38;10525056;28;20226;-69
2023/12/17 07:52:05;;;;;;;10.37;7.73;;;;;;;3.63;49.38;101663.22;10525133;28;20237;-68
2023/12/17 07:57:08;;;;;;;11.50;7.80;;;;;;;4.83;47.25;101707.00;10502244;28;20227;-67
2023/12/17 08:02:10;;;;;;;17.97;10.10;;;;;;;5.85;46.26;101550.50;10516898;28;20244;-69
2023/12/17 08:07:11;;;;;;;18.93;8.20;;;;;;;4.15;48.35;101660.94;10526647;28;20739;-69
2023/12/17 08:12:13;;;;;;;11.23;8.20;;;;;;;6.12;45.41;101620.41;10528191;28;20735;-67
2023/12/17 08:17:15;;;;;;;26.73;8.60;;;;;;;6.28;45.38;101583.78;10527446;28;20265;-67
2023/12/17 08:22:17;;;;;;;13.93;8.90;;;;;;;6.04;45.00;101660.81;10525081;28;20208;-69
2023/12/17 08:27:19;;;;;;;13.30;8.57;;;;;;;7.95;42.01;101749.72;10523419;28;20232;-69
2023/12/17 08:32:21;;;;;;;11.17;9.60;;;;;;;6.95;43.27;101796.19;10524908;28;20201;-69
2023/12/17 08:37:24;;;;;;;11.17;10.07;;;;;;;7.20;43.13;101724.31;10523681;28;20228;-68
2023/12/17 08:42:26;;;;;;;11.27;8.97;;;;;;;6.97;43.46;101785.41;10521589;28;20233;-68
2023/12/17 08:47:28;;;;;;;14.17;9.73;;;;;;;4.46;49.07;101622.75;10526258;28;20269;-69
2023/12/17 08:52:29;;;;;;;17.93;8.20;;;;;;;3.74;47.53;101919.41;10518655;28;20710;-69
2023/12/17 08:57:31;;;;;;;10.73;7.80;;;;;;;5.36;46.63;101713.25;10525766;28;20269;-69
2023/12/17 09:02:36;;;;;;;13.93;9.50;;;;;;;3.88;49.45;101767.63;10521524;28;20286;-68
2023/12/17 09:07:38;;;;;;;17.30;8.73;;;;;;;5.50;46.81;101738.88;10519415;28;20537;-68
2023/12/17 09:12:40;;;;;;;12.43;7.43;;;;;;;3.54;49.57;101824.38;10519600;28;20394;-69
2023/12/17 09:17:43;;;;;;;21.40;8.47;;;;;;;2.85;52.13;101763.81;10513570;28;20300;-69
2023/12/17 09:22:45;;;;;;;31.83;9.20;;;;;;;3.97;50.88;101616.09;10524167;28;20234;-68
2023/12/17 09:27:47;;;;;;;21.10;8.80;;;;;;;4.01;50.42;101669.75;10514610;28;20506;-69
2023/12/17 09:32:49;;;;;;;13.80;7.80;;;;;;;5.89;46.45;101761.03;10518883;28;20232;-69
2023/12/17 09:37:51;;;;;;;20.63;9.17;;;;;;;3.87;51.00;101657.34;10518804;28;20243;-68
2023/12/17 09:42:54;;;;;;;16.20;9.30;;;;;;;6.24;45.85;101862.31;10519545;28;20350;-69
2023/12/17 09:47:55;;;;;;;30.23;10.43;;;;;;;7.28;44.10;101850.59;10503975;28;20236;-70
2023/12/17 09:52:58;;;;;;;19.73;11.37;;;;;;;8.66;42.51;101769.88;10517073;28;20232;-69
2023/12/17 09:58:06;;;;;;;44.00;11.00;;;;;;;8.74;43.27;101702.53;10519501;28;20736;-70
2023/12/17 10:03:12;;;;;;;25.70;9.77;;;;;;;8.59;43.66;101725.09;10498109;28;20237;-68
2023/12/17 10:08:15;;;;;;;20.90;11.53;;;;;;;6.38;46.42;101874.66;10517803;28;20242;-71
2023/12/17 10:13:18;;;;;;;37.87;13.20;;;;;;;5.93;47.67;101812.22;10521220;28;20731;-69
2023/12/17 10:18:21;;;;;;;20.40;9.83;;;;;;;7.10;47.14;101644.25;10516591;28;20340;-70
2023/12/17 10:23:23;;;;;;;20.13;11.47;;;;;;;7.80;45.16;101725.94;10521649;28;20331;-69
2023/12/17 10:28:25;;;;;;;20.33;11.30;;;;;;;8.34;43.68;101771.59;10518231;28;20243;-69
2023/12/17 10:33:32;;;;;;;30.37;11.20;;;;;;;6.87;46.87;101692.09;10525076;28;20318;-69
2023/12/17 10:38:35;;;;;;;29.77;11.17;;;;;;;7.95;46.07;101624.41;10499813;28;20283;-70
2023/12/17 10:43:38;;;;;;;29.20;11.83;;;;;;;8.47;43.75;101783.84;10520448;28;20726;-70
2023/12/17 10:48:41;;;;;;;27.97;11.80;;;;;;;8.50;44.45;101700.00;10514965;28;20242;-69
2023/12/17 10:53:48;;;;;;;21.63;11.50;;;;;;;8.58;43.63;101739.44;10517565;28;20345;-70
2023/12/17 10:58:51;;;;;;;40.67;12.33;;;;;;;7.22;45.54;101850.19;10468576;22;20791;-34
2023/12/17 11:06:13;;;;;;;87.23;13.53;;;;;;;4.70;51.37;101645.97;10534350;27;20815;-76
2023/12/17 11:11:15;;;;;;;37.67;14.03;;;;;;;6.28;49.32;101564.28;10514752;28;20251;-75
2023/12/17 11:16:24;;;;;;;28.20;12.67;;;;;;;5.37;50.61;101645.06;10523970;27;20704;-75
2023/12/17 11:21:27;;;;;;;39.73;13.90;;;;;;;5.19;50.80;101594.94;10487908;27;20240;-76
2023/12/17 11:26:38;;;;;;;24.13;12.17;;;;;;;3.81;52.92;101649.78;10483633;28;20237;-76
2023/12/17 11:31:40;;;;;;;16.13;12.63;;;;;;;5.36;49.74;101625.63;10480878;28;20253;-75
2023/12/17 11:36:42;;;;;;;17.83;12.73;;;;;;;5.19;49.78;101668.41;10481590;28;20239;-76
2023/12/17 11:41:44;;;;;;;29.87;12.90;;;;;;;4.99;50.88;101563.59;10473540;28;20659;-75
2023/12/17 11:46:47;;;;;;;25.50;13.20;;;;;;;5.57;50.36;101525.06;10477951;28;20234;-76
2023/12/17 11:51:50;;;;;;;21.53;12.20;;;;;;;4.14;53.39;101489.66;10476703;28;20226;-75
2023/12/17 11:56:52;;;;;;;30.67;12.97;;;;;;;4.13;52.79;101512.63;10481388;28;20281;-75
2023/12/17 12:01:55;;;;;;;21.60;12.47;;;;;;;5.28;50.88;101506.72;10483375;28;20325;-75
2023/12/17 12:06:57;;;;;;;33.00;12.70;;;;;;;4.12;54.09;101465.91;10476325;28;20242;-75
2023/12/17 12:11:59;;;;;;;19.67;14.17;;;;;;;5.61;50.36;101505.31;10474853;28;20296;-75
2023/12/17 12:17:01;;;;;;;18.97;13.27;;;;;;;6.53;48.86;101507.47;10453156;28;20243;-76
2023/12/17 12:22:02;;;;;;;42.27;13.67;;;;;;;4.30;50.86;101728.03;10450687;28;20239;-75
2023/12/17 12:27:05;;;;;;;36.67;12.47;;;;;;;5.41;50.47;101537.72;10444864;28;20329;-75
2023/12/17 12:32:08;;;;;;;32.43;13.57;;;;;;;5.78;50.28;101477.53;10448148;28;20320;-75
2023/12/17 12:37:09;;;;;;;59.10;13.97;;;;;;;4.73;51.45;101621.91;10452517;28;20612;-75
2023/12/17 12:42:17;;;;;;;38.53;13.73;;;;;;;5.40;51.02;101481.13;10445349;28;20818;-75
2023/12/17 12:47:20;;;;;;;24.83;13.13;;;;;;;4.76;50.43;101719.81;10451386;28;20233;-73
2023/12/17 12:52:23;;;;;;;44.67;12.93;;;;;;;6.14;50.74;101432.41;10446058;28;20335;-74
2023/12/17 12:57:25;;;;;;;26.53;13.00;;;;;;;6.04;49.57;101514.63;10452328;28;20316;-74
2023/12/17 13:02:28;;;;;;;75.03;14.00;;;;;;;5.08;51.82;101483.34;10442167;28;20238;-74
2023/12/17 13:07:31;;;;;;;24.40;13.77;;;;;;;5.74;50.35;101485.81;10451321;28;20242;-75
2023/12/17 13:12:33;;;;;;;34.77;12.23;;;;;;;4.94;50.93;101574.53;10491822;27;20648;-75
2023/12/17 13:17:35;;;;;;;20.47;12.13;;;;;;;6.82;47.43;101614.41;10482324;28;20253;-75
2023/12/17 13:22:37;;;;;;;37.37;14.43;;;;;;;7.06;46.65;101635.66;10452008;28;20321;-75
2023/12/17 13:27:38;;;;;;;24.53;12.53;;;;;;;3.14;52.66;101755.22;10448619;28;20267;-74
2023/12/17 13:32:40;;;;;;;23.33;13.33;;;;;;;6.24;48.63;101577.84;10448650;28;20713;-74
2023/12/17 13:37:42;;;;;;;20.20;13.33;;;;;;;5.15;51.08;101572.22;10446746;28;20243;-74
2023/12/17 13:42:48;;;;;;;19.30;12.63;;;;;;;5.62;49.82;101522.94;10453158;28;20233;-74
2023/12/17 13:47:50;;;;;;;20.90;13.37;;;;;;;6.09;48.58;101588.72;10451082;28;20768;-74
2023/12/17 13:52:52;;;;;;;37.47;13.53;;;;;;;5.55;50.27;101468.53;10450315;28;20235;-73
2023/12/17 13:57:54;;;;;;;24.43;13.13;;;;;;;7.04;48.03;101447.72;10441922;28;20778;-75
2023/12/17 14:02:56;;;;;;;23.03;13.70;;;;;;;5.66;48.71;101714.81;10448959;28;20653;-76
2023/12/17 14:07:58;;;;;;;19.20;13.73;;;;;;;6.47;48.55;101498.16;10445001;28;20270;-76
2023/12/17 14:13:00;;;;;;;36.13;12.87;;;;;;;6.54;48.65;101471.94;10441129;28;20266;-74
2023/12/17 14:18:03;;;;;;;29.90;12.07;;;;;;;5.36;51.30;101431.00;10447974;28;20247;-74
2023/12/17 14:23:06;;;;;;;36.80;12.90;;;;;;;3.38;53.16;101678.84;10448669;28;20260;-74
2023/12/17 14:28:09;;;;;;;45.17;13.33;;;;;;;4.17;53.03;101508.84;10444554;28;20304;-76
2023/12/17 14:33:10;;;;;;;29.83;12.63;;;;;;;6.46;48.35;101562.09;10446286;28;20277;-77
2023/12/17 14:38:12;;;;;;;21.73;13.80;;;;;;;7.47;46.78;101521.59;10442285;28;20235;-76
2023/12/17 14:43:14;;;;;;;58.10;14.33;;;;;;;7.13;46.88;101604.94;10441598;28;20310;-76
2023/12/17 14:48:15;;;;;;;23.90;12.93;;;;;;;5.68;48.19;101758.91;10444970;28;20707;-76
2023/12/17 14:53:17;;;;;;;28.33;12.23;;;;;;;5.90;49.55;101525.44;10447167;28;20266;-76
2023/12/17 14:58:19;;;;;;;77.27;13.67;;;;;;;2.43;54.51;101785.50;10445011;28;20318;-76
2023/12/17 15:03:21;;;;;;;37.17;12.90;;;;;;;6.65;48.15;101548.28;10444056;28;20505;-76
2023/12/17 15:08:23;;;;;;;33.57;13.57;;;;;;;7.26;46.58;101583.56;10445566;28;20226;-76
2023/12/17 15:13:25;;;;;;;36.73;13.50;;;;;;;4.36;50.69;101786.00;10444432;28;20704;-76
2023/12/17 15:18:26;;;;;;;68.10;16.27;;;;;;;5.18;50.56;101624.22;10441663;28;20242;-76
2023/12/17 15:23:29;;;;;;;54.93;13.70;;;;;;;3.86;52.03;101758.94;10445585;28;20656;-76
2023/12/17 15:28:30;;;;;;;42.07;14.73;;;;;;;4.50;51.78;101604.84;10443972;28;20722;-76
2023/12/17 15:33:32;;;;;;;75.30;15.70;;;;;;;4.83;51.85;101492.16;10444125;28;20248;-76
2023/12/17 15:38:38;;;;;;;27.57;14.67;;;;;;;6.12;48.62;101607.13;10443536;28;20234;-76
2023/12/17 15:43:40;;;;;;;65.80;12.90;;;;;;;2.08;55.58;101719.53;10439751;28;20720;-76
2023/12/17 15:48:42;;;;;;;40.83;13.47;;;;;;;5.81;48.90;101607.50;10441113;28;20238;-76
2023/12/17 15:53:44;;;;;;;49.90;15.20;;;;;;;6.02;49.12;101516.56;10446367;28;20242;-76
2023/12/17 15:58:45;;;;;;;36.80;13.10;;;;;;;6.23;48.28;101607.19;10448857;28;20241;-73
2023/12/17 16:03:47;;;;;;;44.33;13.90;;;;;;;6.73;47.01;101641.66;10445591;28;20256;-77
2023/12/17 16:08:52;;;;;;;50.60;14.97;;;;;;;6.31;47.45;101659.81;10461681;28;20716;-76
2023/12/17 16:13:54;;;;;;;52.03;14.00;;;;;;;5.75;49.65;101573.38;10486500;27;20230;-77
2023/12/17 16:18:56;;;;;;;42.67;13.83;;;;;;;6.68;47.40;101567.50;10475514;28;20239;-77
2023/12/17 16:23:58;;;;;;;59.50;14.80;;;;;;;6.49;46.92;101690.38;10448908;28;20243;-76
2023/12/17 16:28:59;;;;;;;73.23;15.63;;;;;;;5.67;48.10;101714.72;10447558;28;20235;-75
2023/12/17 16:34:01;;;;;;;57.60;13.17;;;;;;;5.56;48.03;101761.53;10444666;28;20513;-76
2023/12/17 16:39:03;;;;;;;35.17;16.70;;;;;;;6.90;46.17;101651.97;10445096;28;20238;-77
2023/12/17 16:44:06;;;;;;;22.53;12.03;;;;;;;5.27;47.17;101875.81;10444499;28;20336;-78
2023/12/17 16:49:09;;;;;;;70.27;15.80;;;;;;;7.01;46.14;101631.66;10443553;28;20241;-77
2023/12/17 16:54:11;;;;;;;27.30;12.17;;;;;;;5.84;47.43;101784.44;10447825;28;20720;-77
2023/12/17 16:59:13;;;;;;;39.80;11.87;;;;;;;4.23;52.03;101559.75;10398608;22;20250;-33
2023/12/17 17:04:14;;;;;;;52.67;13.53;;;;;;;7.33;46.02;101624.72;10359235;28;20254;-33
2023/12/17 17:09:17;;;;;;;38.60;13.70;;;;;;;7.66;44.65;101684.38;10354741;28;20241;-35
2023/12/17 17:14:19;;;;;;;29.50;12.77;;;;;;;6.79;46.31;101683.81;10383180;22;20230;-41
2023/12/17 17:19:21;;;;;;;37.90;15.03;;;;;;;5.93;47.57;101724.50;10397234;28;20297;-38
2023/12/17 17:24:22;;;;;;;32.87;15.13;;;;;;;7.03;45.98;101648.38;10394089;28;20247;-38
2023/12/17 17:29:24;;;;;;;60.70;16.10;;;;;;;7.21;45.27;101716.19;10393902;28;20227;-42
2023/12/17 17:34:26;;;;;;;48.30;13.23;;;;;;;5.50;49.07;101616.72;10396314;28;20246;-35
2023/12/17 17:39:28;;;;;;;44.30;16.13;;;;;;;5.19;47.90;101788.69;10394156;28;20240;-39
2023/12/17 17:44:30;;;;;;;33.73;13.63;;;;;;;5.99;48.11;101636.38;10395154;28;20239;-40
2023/12/17 17:49:32;;;;;;;53.00;15.30;;;;;;;5.10;48.19;101829.13;10391723;28;20237;-40
2023/12/17 17:54:33;;;;;;;42.77;15.67;;;;;;;7.34;45.20;101721.44;10402018;28;20232;-42
2023/12/17 17:59:35;;;;;;;48.43;16.20;;;;;;;6.54;46.06;101754.75;10390353;28;20237;-39
2023/12/17 18:04:37;;;;;;;41.90;14.80;;;;;;;6.07;46.87;101772.22;10400578;28;20227;-37
2023/12/17 18:09:39;;;;;;;26.00;13.53;;;;;;;6.18;46.78;101705.88;10393968;28;20236;-42
2023/12/17 18:14:40;;;;;;;51.17;13.90;;;;;;;5.28;47.98;101727.06;10391459;28;20238;-41
2023/12/17 18:19:44;;;;;;;58.03;14.33;;;;;;;3.31;51.56;101717.19;10391991;28;20237;-37
2023/12/17 18:24:46;;;;;;;26.00;13.07;;;;;;;6.33;46.53;101695.97;10389292;28;20235;-38
2023/12/17 18:29:47;;;;;;;23.37;13.77;;;;;;;6.79;45.85;101650.06;10392780;28;20246;-39
2023/12/17 18:34:49;;;;;;;50.77;14.10;;;;;;;6.63;45.10;101790.47;10395374;28;21304;-40
2023/12/17 18:39:55;;;;;;;34.30;13.43;;;;;;;5.58;47.00;101813.56;10392667;28;20236;-43
2023/12/17 18:44:57;;;;;;;28.10;13.30;;;;;;;5.36;48.02;101733.66;10397061;28;20234;-41
2023/12/17 18:49:58;;;;;;;32.97;14.00;;;;;;;6.81;45.29;101754.59;10395454;28;20251;-38
2023/12/17 18:55:02;;;;;;;50.40;14.93;;;;;;;5.45;46.58;101959.59;10393532;28;20303;-38
2023/12/17 19:00:05;;;;;;;24.57;13.57;;;;;;;6.87;45.22;101734.69;10393071;28;20235;-41
2023/12/17 19:05:07;;;;;;;20.80;11.97;;;;;;;5.16;48.29;101796.84;10391964;28;20234;-41
2023/12/17 19:10:09;;;;;;;19.63;12.60;;;;;;;5.85;46.34;101849.91;10395151;28;20830;-41
2023/12/17 19:15:10;;;;;;;23.43;12.60;;;;;;;5.96;46.30;101799.56;10399400;28;20233;-44
2023/12/17 19:20:12;;;;;;;28.47;13.27;;;;;;;5.81;47.23;101743.00;10399907;28;20715;-38
2023/12/17 19:25:14;;;;;;;27.83;9.80;;;;;;;1.99;54.07;101966.50;10404908;28;20277;-42
2023/12/17 19:30:16;;;;;;;34.20;14.33;;;;;;;5.44;48.28;101679.06;10408501;28;20239;-41
2023/12/17 19:35:19;;;;;;;36.27;13.67;;;;;;;5.07;48.17;101795.66;10402684;28;20264;-39
2023/12/17 19:40:20;;;;;;;63.27;14.63;;;;;;;4.66;49.64;101697.50;10406157;28;20325;-40
2023/12/17 19:45:22;;;;;;;54.97;13.43;;;;;;;3.88;51.73;101714.66;10402818;28;20317;-35
2023/12/17 19:50:24;;;;;;;48.93;14.83;;;;;;;5.01;49.17;101744.78;10410825;28;20233;-42
2023/12/17 19:55:26;;;;;;;61.90;14.93;;;;;;;6.52;47.43;101660.91;10408546;28;20229;-39
2023/12/17 20:00:29;;;;;;;39.47;15.10;;;;;;;8.50;43.33;101737.38;10403237;28;20316;-40
2023/12/17 20:05:31;;;;;;;53.37;15.73;;;;;;;8.05;43.91;101759.56;10401228;28;20242;-38
2023/12/17 20:10:34;;;;;;;37.93;14.47;;;;;;;7.45;44.79;101844.03;10404296;28;20441;-38
2023/12/17 20:15:36;;;;;;;35.13;16.47;;;;;;;7.40;45.26;101762.75;10406829;28;20249;-40
2023/12/17 20:20:38;;;;;;;49.47;16.20;;;;;;;8.11;44.21;101715.56;10405451;28;20282;-37
2023/12/17 20:25:40;;;;;;;78.43;17.50;;;;;;;6.71;46.48;101763.31;10407934;28;20317;-38
2023/12/17 20:30:42;;;;;;;40.43;17.57;;;;;;;5.75;47.88;101816.94;10407096;28;20350;-39
2023/12/17 20:35:43;;;;;;;38.60;17.60;;;;;;;5.33;50.48;101629.38;10406936;28;20232;-39
2023/12/17 20:40:46;;;;;;;58.80;13.47;;;;;;;1.96;56.13;101800.25;10403020;28;20238;-39
2023/12/17 20:45:48;;;;;;;71.33;18.70;;;;;;;5.18;50.35;101677.31;10405116;28;20238;-40
2023/12/17 20:50:50;;;;;;;55.77;17.90;;;;;;;7.42;47.09;101572.56;10398864;28;20232;-42
2023/12/17 20:55:52;;;;;;;67.37;16.97;;;;;;;6.48;47.95;101662.09;10405783;28;20286;-38
2023/12/17 21:00:53;;;;;;;42.27;16.37;;;;;;;5.87;48.41;101744.38;10406422;28;20228;-40
2023/12/17 21:05:55;;;;;;;94.23;17.17;;;;;;;4.35;52.06;101708.25;10407409;28;20314;-40
2023/12/17 21:10:57;;;;;;;48.60;15.37;;;;;;;5.08;51.78;101542.59;10402485;28;20693;-41
2023/12/17 21:15:59;;;;;;;75.10;19.33;;;;;;;5.14;50.92;101591.75;10404915;28;20231;-39
2023/12/17 21:21:00;;;;;;;64.90;16.90;;;;;;;5.63;49.10;101728.31;10404227;28;20246;-41
2023/12/17 21:26:02;;;;;;;59.47;15.03;;;;;;;6.50;48.51;101569.75;10410362;28;20695;-42
2023/12/17 21:31:04;;;;;;;43.47;14.43;;;;;;;4.86;49.82;101832.38;10404622;28;20358;-41
2023/12/17 21:36:06;;;;;;;47.17;15.90;;;;;;;5.82;50.37;101565.81;10409745;28;20719;-44
2023/12/17 21:41:08;;;;;;;25.47;14.73;;;;;;;5.61;49.08;101757.63;10407055;28;20231;-43
2023/12/17 21:46:11;;;;;;;33.60;15.53;;;;;;;6.30;47.69;101724.59;10403299;28;20259;-41
2023/12/17 21:51:12;;;;;;;25.13;15.10;;;;;;;5.57;49.57;101647.22;10403042;28;20427;-41
2023/12/17 21:56:14;;;;;;;30.93;15.73;;;;;;;5.75;49.08;101669.00;10405803;28;20224;-42
2023/12/17 22:01:16;;;;;;;29.40;16.60;;;;;;;6.70;47.63;101599.31;10406079;28;20923;-40
2023/12/17 22:06:18;;;;;;;37.40;15.43;;;;;;;6.71;46.76;101776.63;10401164;28;20704;-41
2023/12/17 22:11:20;;;;;;;29.27;15.70;;;;;;;6.78;47.65;101668.81;10399775;28;20787;-39
2023/12/17 22:16:22;;;;;;;33.40;16.03;;;;;;;6.30;48.63;101624.41;10401248;28;20277;-42
2023/12/17 22:21:24;;;;;;;37.10;15.53;;;;;;;6.35;48.60;101621.41;10401061;28;20239;-37
2023/12/17 22:26:29;;;;;;;48.70;15.27;;;;;;;7.48;45.57;101760.38;10397508;28;20329;-38
2023/12/17 22:31:31;;;;;;;33.90;14.23;;;;;;;6.12;48.30;101690.34;10391033;28;20323;-44
2023/12/17 22:36:33;;;;;;;27.10;14.67;;;;;;;6.78;46.77;101783.22;10402216;28;20727;-38
2023/12/17 22:41:39;;;;;;;34.07;16.30;;;;;;;6.50;46.65;101843.72;10396723;28;21066;-39
2023/12/17 22:46:41;;;;;;;29.00;16.33;;;;;;;8.10;45.45;101657.88;10399697;28;20266;-41
2023/12/17 22:51:43;;;;;;;25.40;15.67;;;;;;;7.88;45.80;101650.72;10399498;28;20264;-39
2023/12/17 22:56:45;;;;;;;43.70;15.43;;;;;;;7.29;45.53;101760.88;10396920;28;20294;-40
2023/12/17 23:01:49;;;;;;;43.87;15.57;;;;;;;5.96;47.79;101881.06;10403351;28;20250;-41